Time;durP1;ratioP1;P1;durP2;ratioP2;P2;SDS_P1;SDS_P2;PMS_P1;PMS_P2;Temp;Humidity;BMP_temperature;BMP_pressure;BME280_temperature;BME280_humidity;BME280_pressure;Samples;Min_cycle;Max_cycle;Signal;HPM_P1;HPM_P2
2023/02/26 00:01:37;;;;;;;;;;;;;;;12.73;31.50;100952.61;1942928;74;20108;-42
2023/02/26 00:04:06;;;;;;;;;;;;;;;12.72;31.64;100951.73;1951512;74;20233;-43
2023/02/26 00:06:35;;;;;;;;;;;;;;;12.73;31.74;100949.97;1951581;73;20113;-41
2023/02/26 00:09:04;;;;;;;;;;;;;;;12.75;31.68;100960.00;1951542;74;20155;-42
2023/02/26 00:11:32;;;;;;;;;;;;;;;12.72;32.04;100962.30;1950106;74;20121;-43
2023/02/26 00:14:00;;;;;;;;;;;;;;;12.73;32.12;100952.14;1929194;73;20151;-42
2023/02/26 00:16:30;;;;;;;;;;;;;;;12.74;32.26;100952.55;1929008;74;20183;-42
2023/02/26 00:18:59;;;;;;;;;;;;;;;12.73;32.43;100954.78;1929176;74;20355;-42
2023/02/26 00:21:27;;;;;;;;;;;;;;;12.71;32.64;100976.45;1929054;74;20371;-43
2023/02/26 00:23:55;;;;;;;;;;;;;;;12.74;32.82;100967.09;1928996;74;20116;-46
2023/02/26 00:26:24;;;;;;;;;;;;;;;12.72;32.94;100978.63;1929110;74;20116;-45
2023/02/26 00:28:52;;;;;;;;;;;;;;;12.70;33.19;100954.91;1928928;74;20112;-43
2023/02/26 00:31:23;;;;;;;;;;;;;;;12.62;33.56;100962.33;1929176;74;20120;-43
2023/02/26 00:33:50;;;;;;;;;;;;;;;12.57;33.64;100957.70;1946415;73;20100;-42
2023/02/26 00:36:20;;;;;;;;;;;;;;;12.55;33.67;100968.34;1951576;74;20104;-42
2023/02/26 00:38:49;;;;;;;;;;;;;;;12.58;33.64;100905.29;1902525;73;20102;-43
2023/02/26 00:41:17;;;;;;;;;;;;;;;12.57;33.69;100953.74;1898816;74;20114;-41
2023/02/26 00:43:45;;;;;;;;;;;;;;;12.54;33.94;100952.55;1951487;73;20104;-40
2023/02/26 00:46:14;;;;;;;;;;;;;;;12.50;34.03;100915.32;1951663;74;20108;-41
2023/02/26 00:48:46;;;;;;;;;;;;;;;12.51;34.15;100931.58;1950255;74;20105;-41
2023/02/26 00:51:18;;;;;;;;;;;;;;;12.46;34.40;100954.20;1950530;74;20112;-40
2023/02/26 00:53:48;;;;;;;;;;;;;;;12.42;34.66;100934.62;1951386;74;20117;-40
2023/02/26 00:56:16;;;;;;;;;;;;;;;12.38;34.81;100926.44;1951025;74;20147;-40
2023/02/26 00:58:44;;;;;;;;;;;;;;;12.36;34.91;100945.84;1951356;73;20116;-40
2023/02/26 01:01:11;;;;;;;;;;;;;;;12.35;35.04;100942.78;1951369;74;20151;-40
2023/02/26 01:03:39;;;;;;;;;;;;;;;12.32;35.20;100968.02;1951139;74;20113;-40
2023/02/26 01:06:08;;;;;;;;;;;;;;;12.27;35.35;100930.39;1951167;74;20116;-40
2023/02/26 01:08:38;;;;;;;;;;;;;;;12.26;35.17;100951.10;1951124;74;20156;-40
2023/02/26 01:11:06;;;;;;;;;;;;;;;12.28;35.10;100951.92;1949816;74;20152;-40
2023/02/26 01:13:34;;;;;;;;;;;;;;;12.32;35.10;100953.50;1951146;74;20151;-44
2023/02/26 01:16:04;;;;;;;;;;;;;;;12.26;35.43;100951.10;1951252;74;20112;-41
2023/02/26 01:18:33;;;;;;;;;;;;;;;12.23;35.59;100950.38;1951182;74;20117;-41
2023/02/26 01:21:02;;;;;;;;;;;;;;;12.25;35.34;100944.12;1950610;74;20116;-42
2023/02/26 01:23:31;;;;;;;;;;;;;;;12.26;35.40;100948.93;1951232;74;20100;-41
2023/02/26 01:26:00;;;;;;;;;;;;;;;12.28;35.48;100952.36;1951294;74;20116;-41
2023/02/26 01:28:28;;;;;;;;;;;;;;;12.24;35.67;100952.95;1951179;74;20112;-44
2023/02/26 01:30:59;;;;;;;;;;;;;;;12.24;35.65;100963.52;1951345;74;20104;-43
2023/02/26 01:33:28;;;;;;;;;;;;;;;12.25;35.72;100958.64;1951054;74;20117;-41
2023/02/26 01:35:57;;;;;;;;;;;;;;;12.25;35.81;100992.12;1951181;74;20120;-44
2023/02/26 01:38:33;;;;;;;;;;;;;;;12.22;36.02;100982.99;1951016;73;20194;-45
2023/02/26 01:41:06;;;;;;;;;;;;;;;12.20;36.08;100977.77;1921922;74;20144;-49
2023/02/26 01:43:44;;;;;;;;;;;;;;;12.22;36.27;100978.56;1919148;74;20113;-47
2023/02/26 01:46:13;;;;;;;;;;;;;;;12.20;36.54;100997.57;1923573;74;20195;-40
2023/02/26 01:48:52;;;;;;;;;;;;;;;12.15;36.72;101004.38;1926250;74;20147;-40
2023/02/26 01:51:21;;;;;;;;;;;;;;;12.15;37.00;100995.58;1937538;74;20363;-41
2023/02/26 01:53:49;;;;;;;;;;;;;;;12.17;37.13;100991.09;1939762;74;20143;-41
2023/02/26 01:56:19;;;;;;;;;;;;;;;12.14;37.23;100996.05;1945195;74;20139;-41
2023/02/26 01:58:48;;;;;;;;;;;;;;;12.14;37.41;100986.81;1945194;73;20125;-41
2023/02/26 02:01:16;;;;;;;;;;;;;;;12.12;37.62;100979.89;1945250;74;20168;-41
2023/02/26 02:03:44;;;;;;;;;;;;;;;12.11;37.76;100998.80;1945451;74;20367;-41
2023/02/26 02:06:17;;;;;;;;;;;;;;;12.10;37.95;100995.78;1937747;74;20372;-41
2023/02/26 02:08:45;;;;;;;;;;;;;;;12.10;38.11;100990.98;1937377;74;20135;-41
2023/02/26 02:11:13;;;;;;;;;;;;;;;12.08;38.30;101002.03;1937674;74;20097;-41
2023/02/26 02:13:43;;;;;;;;;;;;;;;12.03;38.54;101005.34;1937383;74;20147;-44
2023/02/26 02:16:12;;;;;;;;;;;;;;;12.01;38.63;100992.64;1935886;74;20371;-46
2023/02/26 02:18:42;;;;;;;;;;;;;;;11.97;38.87;101006.45;1937501;74;20140;-44
2023/02/26 02:21:18;;;;;;;;;;;;;;;11.97;38.97;100998.06;1939156;74;20136;-45
2023/02/26 02:23:54;;;;;;;;;;;;;;;11.96;39.21;100998.97;1943481;73;20120;-43
2023/02/26 02:26:32;;;;;;;;;;;;;;;11.92;39.47;101004.45;1944513;73;20116;-41
2023/02/26 02:29:10;;;;;;;;;;;;;;;11.83;39.77;100995.09;1946054;72;20117;-45
2023/02/26 02:31:42;;;;;;;;;;;;;;;11.79;40.24;101002.73;1934936;74;20113;-46
2023/02/26 02:34:11;;;;;;;;;;;;;;;11.85;40.28;101014.35;1937233;74;20147;-45
2023/02/26 02:36:47;;;;;;;;;;;;;;;11.87;40.43;100994.51;1933088;74;20147;-44
2023/02/26 02:39:16;;;;;;;;;;;;;;;11.85;40.69;101003.80;1937510;74;20113;-43
2023/02/26 02:41:48;;;;;;;;;;;;;;;11.85;40.89;100997.67;1941018;74;20113;-43
2023/02/26 02:44:18;;;;;;;;;;;;;;;11.85;41.13;101021.41;1951048;74;20160;-43
2023/02/26 02:46:46;;;;;;;;;;;;;;;11.83;41.33;101010.92;1951098;74;20147;-43
2023/02/26 02:49:17;;;;;;;;;;;;;;;11.81;41.63;101015.88;1950857;74;20162;-44
2023/02/26 02:51:56;;;;;;;;;;;;;;;11.78;41.90;101025.62;1951178;74;20202;-46
2023/02/26 02:54:25;;;;;;;;;;;;;;;11.76;41.93;101034.03;1951384;74;20351;-48
2023/02/26 02:56:58;;;;;;;;;;;;;;;11.73;42.33;101023.63;1938786;74;20105;-46
2023/02/26 02:59:27;;;;;;;;;;;;;;;11.71;42.61;101023.27;1941221;72;20188;-46
2023/02/26 03:02:03;;;;;;;;;;;;;;;11.72;42.79;101021.04;1926374;73;20153;-46
2023/02/26 03:04:32;;;;;;;;;;;;;;;11.71;43.13;101025.90;1923100;73;20123;-47
2023/02/26 03:07:00;;;;;;;;;;;;;;;11.70;43.32;101040.87;1970239;73;20111;-42
2023/02/26 03:09:27;;;;;;;;;;;;;;;11.73;43.77;101023.63;1970101;73;20194;-42
2023/02/26 03:11:55;;;;;;;;;;;;;;;11.78;43.68;101026.06;1970230;73;20112;-41
2023/02/26 03:14:24;;;;;;;;;;;;;;;11.75;43.79;101038.08;1970259;73;20103;-45
2023/02/26 03:16:54;;;;;;;;;;;;;;;11.74;44.03;101035.02;1972107;73;20146;-44
2023/02/26 03:19:40;;;;;;;;;;;;;;;11.74;44.21;101028.43;1972097;73;20163;-44
2023/02/26 03:22:10;;;;;;;;;;;;;;;11.72;44.35;100995.52;1972255;73;20131;-44
2023/02/26 03:25:03;;;;;;;;;;;;;;;11.73;44.39;101020.10;1971869;73;20114;-41
2023/02/26 03:27:32;;;;;;;;;;;;;;;11.71;44.52;101031.17;1972293;73;20107;-41
2023/02/26 03:30:05;;;;;;;;;;;;;;;11.68;44.57;101014.17;1970346;73;20108;-41
2023/02/26 03:32:39;;;;;;;;;;;;;;;11.69;44.74;101034.34;1961690;73;20182;-41
2023/02/26 03:35:11;;;;;;;;;;;;;;;11.69;44.86;101029.06;1958125;72;20143;-41
2023/02/26 03:37:40;;;;;;;;;;;;;;;11.66;44.92;101030.52;1975482;72;20104;-45
2023/02/26 03:40:10;;;;;;;;;;;;;;;11.69;45.02;101033.02;1954627;72;20110;-46
2023/02/26 03:42:57;;;;;;;;;;;;;;;11.67;45.20;101046.73;1960672;73;20142;-44
2023/02/26 03:45:29;;;;;;;;;;;;;;;11.65;45.27;101069.67;1960842;73;20108;-43
2023/02/26 03:47:58;;;;;;;;;;;;;;;11.62;45.40;101052.20;1960815;73;20116;-44
2023/02/26 03:50:27;;;;;;;;;;;;;;;11.61;45.63;101066.76;1960844;73;20136;-44
2023/02/26 03:53:02;;;;;;;;;;;;;;;11.58;45.76;101058.48;1958422;73;20392;-43
2023/02/26 03:55:44;;;;;;;;;;;;;;;11.56;45.94;101069.12;1963318;73;20150;-42
2023/02/26 03:58:30;;;;;;;;;;;;;;;11.55;46.09;101067.38;1920501;73;20124;-44
2023/02/26 04:01:01;;;;;;;;;;;;;;;11.53;46.15;101071.86;1953337;73;20137;-44
2023/02/26 04:03:30;;;;;;;;;;;;;;;11.51;46.30;101067.55;1955088;73;20124;-43
2023/02/26 04:05:59;;;;;;;;;;;;;;;11.52;46.38;101085.95;1954398;73;20116;-48
2023/02/26 04:08:27;;;;;;;;;;;;;;;11.51;46.50;101073.70;1951923;73;20155;-44
2023/02/26 04:10:59;;;;;;;;;;;;;;;11.54;46.43;101086.75;1952316;73;20112;-45
2023/02/26 04:13:28;;;;;;;;;;;;;;;11.55;46.60;101079.25;1949438;73;20109;-45
2023/02/26 04:15:56;;;;;;;;;;;;;;;11.53;46.56;101095.59;1948843;73;20258;-44
2023/02/26 04:18:24;;;;;;;;;;;;;;;11.51;46.76;101105.34;1955159;73;20497;-47
2023/02/26 04:20:52;;;;;;;;;;;;;;;11.48;46.70;101101.95;1955068;73;20146;-44
2023/02/26 04:23:20;;;;;;;;;;;;;;;11.47;46.86;101105.06;1955252;73;20146;-45
2023/02/26 04:25:48;;;;;;;;;;;;;;;11.48;46.92;101098.86;1955048;73;20109;-44
2023/02/26 04:28:16;;;;;;;;;;;;;;;11.50;46.99;101087.79;1954593;72;20201;-43
2023/02/26 04:30:44;;;;;;;;;;;;;;;11.49;47.04;101088.72;1955101;73;20183;-45
2023/02/26 04:33:14;;;;;;;;;;;;;;;11.51;47.03;101090.84;1955332;73;20127;-46
2023/02/26 04:35:42;;;;;;;;;;;;;;;11.53;47.03;101094.28;1955055;73;20213;-43
2023/02/26 04:38:10;;;;;;;;;;;;;;;11.55;47.00;101089.80;1955149;73;20112;-44
2023/02/26 04:40:38;;;;;;;;;;;;;;;11.61;46.89;101090.50;1955102;73;20113;-43
2023/02/26 04:43:07;;;;;;;;;;;;;;;11.61;46.95;101099.73;1955135;73;20147;-44
2023/02/26 04:45:36;;;;;;;;;;;;;;;11.61;46.87;101102.37;1954130;73;20201;-44
2023/02/26 04:48:04;;;;;;;;;;;;;;;11.63;46.94;101105.80;1950488;73;20104;-43
2023/02/26 04:50:32;;;;;;;;;;;;;;;11.66;46.93;101120.20;1955674;72;20096;-43
2023/02/26 04:52:59;;;;;;;;;;;;;;;11.69;46.91;101125.34;1947895;74;20394;-46
2023/02/26 04:55:27;;;;;;;;;;;;;;;11.69;47.08;101130.19;1954114;72;20124;-43
2023/02/26 04:57:57;;;;;;;;;;;;;;;11.72;47.03;101127.88;1965187;73;20173;-43
2023/02/26 05:00:25;;;;;;;;;;;;;;;11.76;46.88;101123.73;1961600;72;20129;-44
2023/02/26 05:02:53;;;;;;;;;;;;;;;11.83;46.70;101134.92;1954779;73;20147;-43
2023/02/26 05:05:20;;;;;;;;;;;;;;;11.85;46.68;101131.77;1954744;73;20116;-44
2023/02/26 05:07:49;;;;;;;;;;;;;;;11.85;46.68;101117.25;1946986;73;20125;-43
2023/02/26 05:10:17;;;;;;;;;;;;;;;11.88;46.67;101139.58;1937285;74;20226;-44
2023/02/26 05:12:47;;;;;;;;;;;;;;;11.92;46.55;101131.11;1937399;74;20425;-44
2023/02/26 05:15:15;;;;;;;;;;;;;;;11.94;46.47;101127.48;1937511;74;20143;-43
2023/02/26 05:17:43;;;;;;;;;;;;;;;11.96;46.45;101133.56;1937468;74;20139;-46
2023/02/26 05:20:12;;;;;;;;;;;;;;;11.98;46.34;101158.58;1937435;74;20143;-45
2023/02/26 05:22:41;;;;;;;;;;;;;;;12.03;46.28;101151.82;1917745;74;20107;-46
2023/02/26 05:25:15;;;;;;;;;;;;;;;12.05;46.13;101158.75;1924423;74;20109;-44
2023/02/26 05:27:41;;;;;;;;;;;;;;;12.10;46.13;101161.23;1927602;74;20114;-44
2023/02/26 05:30:11;;;;;;;;;;;;;;;12.11;46.12;101160.28;1936826;73;20382;-47
2023/02/26 05:32:39;;;;;;;;;;;;;;;12.16;46.14;101168.89;1949606;73;20425;-45
2023/02/26 05:35:07;;;;;;;;;;;;;;;12.18;45.97;101156.96;1937392;74;20201;-44
2023/02/26 05:37:35;;;;;;;;;;;;;;;12.25;45.72;101166.37;1942541;74;20197;-44
2023/02/26 05:40:04;;;;;;;;;;;;;;;12.31;45.52;101168.28;1951134;74;20104;-42
2023/02/26 05:42:31;;;;;;;;;;;;;;;12.36;45.43;101179.53;1947463;74;20267;-43
2023/02/26 05:44:59;;;;;;;;;;;;;;;12.40;45.19;101155.66;1921598;75;20104;-44
2023/02/26 05:47:27;;;;;;;;;;;;;;;12.43;45.16;101155.51;1921670;75;20159;-44
2023/02/26 05:49:55;;;;;;;;;;;;;;;12.46;45.22;101171.25;1934697;74;20105;-43
2023/02/26 05:52:22;;;;;;;;;;;;;;;12.47;45.10;101172.52;1951086;74;20132;-43
2023/02/26 05:54:50;;;;;;;;;;;;;;;12.51;44.92;101177.21;1951247;74;20405;-46
2023/02/26 05:57:18;;;;;;;;;;;;;;;12.54;44.88;101181.03;1951052;74;20143;-43
2023/02/26 05:59:46;;;;;;;;;;;;;;;12.57;44.73;101179.59;1951116;74;20116;-44
2023/02/26 06:02:13;;;;;;;;;;;;;;;12.63;44.66;101181.98;1962430;73;20104;-43
2023/02/26 06:04:41;;;;;;;;;;;;;;;12.65;44.46;101181.48;1946326;73;20181;-43
2023/02/26 06:07:09;;;;;;;;;;;;;;;12.70;44.32;101187.41;1926396;74;20177;-43
2023/02/26 06:09:37;;;;;;;;;;;;;;;12.75;44.33;101177.99;1926309;74;20169;-43
2023/02/26 06:12:06;;;;;;;;;;;;;;;12.78;44.27;101176.99;1930910;73;20114;-44
2023/02/26 06:14:34;;;;;;;;;;;;;;;12.80;44.26;101171.18;1926719;74;20120;-40
2023/02/26 06:17:03;;;;;;;;;;;;;;;12.82;44.05;101164.92;1928843;74;20249;-40
2023/02/26 06:19:31;;;;;;;;;;;;;;;12.86;44.03;101184.16;1927846;74;20200;-40
2023/02/26 06:21:59;;;;;;;;;;;;;;;12.88;44.03;101177.03;1927389;73;20149;-40
2023/02/26 06:24:27;;;;;;;;;;;;;;;12.90;43.98;101179.14;1927949;74;20196;-40
2023/02/26 06:26:56;;;;;;;;;;;;;;;12.92;43.91;101182.58;1927297;74;20102;-43
2023/02/26 06:29:23;;;;;;;;;;;;;;;12.96;43.76;101197.38;1964613;73;20116;-43
2023/02/26 06:31:51;;;;;;;;;;;;;;;12.99;43.45;101197.26;1951407;73;20122;-43
2023/02/26 06:34:21;;;;;;;;;;;;;;;13.03;43.49;101203.27;1923472;75;20118;-43
2023/02/26 06:36:48;;;;;;;;;;;;;;;13.05;43.51;101195.67;1923594;75;20149;-46
2023/02/26 06:39:16;;;;;;;;;;;;;;;13.06;43.59;101181.53;1923475;75;20118;-43
2023/02/26 06:41:44;;;;;;;;;;;;;;;13.08;43.49;101182.33;1923501;75;20145;-43
2023/02/26 06:44:12;;;;;;;;;;;;;;;13.11;43.43;101182.21;1942890;73;20190;-47
2023/02/26 06:46:39;;;;;;;;;;;;;;;13.13;43.24;101176.39;1965052;73;20100;-42
2023/02/26 06:49:08;;;;;;;;;;;;;;;13.17;43.08;101186.81;1964962;73;20178;-42
2023/02/26 06:51:36;;;;;;;;;;;;;;;13.19;42.92;101200.38;1965023;73;20108;-43
2023/02/26 06:54:04;;;;;;;;;;;;;;;13.22;42.76;101196.27;1966091;73;20146;-42
2023/02/26 06:56:31;;;;;;;;;;;;;;;13.24;42.89;101206.34;1971979;73;20115;-43
2023/02/26 06:59:00;;;;;;;;;;;;;;;13.26;42.81;101194.35;1972027;73;20107;-43
2023/02/26 07:01:28;;;;;;;;;;;;;;;13.29;42.80;101205.66;1950643;73;20192;-42
2023/02/26 07:03:55;;;;;;;;;;;;;;;13.34;42.58;101210.80;1957861;73;20100;-45
2023/02/26 07:06:25;;;;;;;;;;;;;;;13.35;42.51;101212.50;1959351;73;20104;-44
2023/02/26 07:08:52;;;;;;;;;;;;;;;13.38;42.42;101212.38;1957802;73;20117;-41
2023/02/26 07:11:20;;;;;;;;;;;;;;;13.42;42.43;101216.60;1957824;73;20166;-42
2023/02/26 07:13:48;;;;;;;;;;;;;;;13.47;42.48;101212.45;1957634;73;20167;-46
2023/02/26 07:16:15;;;;;;;;;;;;;;;13.55;42.19;101213.44;1957664;73;20112;-47
2023/02/26 07:18:43;;;;;;;;;;;;;;;13.62;42.24;101224.14;1959383;73;20146;-41
2023/02/26 07:21:11;;;;;;;;;;;;;;;13.71;42.08;101214.48;1965019;73;20099;-42
2023/02/26 07:23:39;;;;;;;;;;;;;;;13.79;41.78;101236.16;1964885;72;20120;-45
2023/02/26 07:26:07;;;;;;;;;;;;;;;13.87;41.81;101238.48;1965027;73;20142;-42
2023/02/26 07:28:35;;;;;;;;;;;;;;;13.95;41.58;101246.08;1965032;73;20116;-44
2023/02/26 07:31:03;;;;;;;;;;;;;;;14.01;41.53;101259.03;1965042;73;20112;-44
2023/02/26 07:33:31;;;;;;;;;;;;;;;14.06;41.43;101257.03;1964964;73;20221;-42
2023/02/26 07:35:59;;;;;;;;;;;;;;;14.12;41.50;101266.02;1964964;73;20120;-41
2023/02/26 07:38:26;;;;;;;;;;;;;;;14.14;41.14;101262.83;1964957;73;20116;-44
2023/02/26 07:40:55;;;;;;;;;;;;;;;14.19;41.34;101266.61;1961842;72;20112;-42
2023/02/26 07:43:24;;;;;;;;;;;;;;;14.23;41.21;101253.14;1926532;74;20156;-44
2023/02/26 07:45:53;;;;;;;;;;;;;;;14.33;41.36;101271.25;1925488;74;20144;-44
2023/02/26 07:48:20;;;;;;;;;;;;;;;14.40;40.85;101264.74;1926409;74;20106;-44
2023/02/26 07:50:50;;;;;;;;;;;;;;;14.46;40.88;101265.80;1926357;74;20153;-44
2023/02/26 07:53:17;;;;;;;;;;;;;;;14.61;40.92;101265.09;1926469;74;20106;-42
2023/02/26 07:55:45;;;;;;;;;;;;;;;14.77;40.75;101280.27;1947030;73;20142;-40
2023/02/26 07:58:13;;;;;;;;;;;;;;;14.85;40.48;101282.09;1972142;72;20390;-41
2023/02/26 08:00:40;;;;;;;;;;;;;;;14.89;40.25;101288.11;1972113;72;20111;-40
2023/02/26 08:03:08;;;;;;;;;;;;;;;14.84;40.11;101283.86;1963165;73;20180;-41
2023/02/26 08:05:36;;;;;;;;;;;;;;;14.87;40.13;101268.30;1959076;73;20159;-43
2023/02/26 08:08:04;;;;;;;;;;;;;;;14.91;40.09;101266.35;1959002;73;20124;-48
2023/02/26 08:10:32;;;;;;;;;;;;;;;14.94;39.95;101265.73;1959135;72;20112;-46
2023/02/26 08:12:59;;;;;;;;;;;;;;;15.02;39.83;101275.97;1959099;72;20108;-46
2023/02/26 08:15:27;;;;;;;;;;;;;;;15.09;39.88;101265.89;1959141;72;20112;-50
2023/02/26 08:17:55;;;;;;;;;;;;;;;15.16;39.86;101272.61;1951461;73;20117;-43
2023/02/26 08:20:23;;;;;;;;;;;;;;;15.17;39.92;101264.58;1947909;74;20118;-42
2023/02/26 08:22:51;;;;;;;;;;;;;;;15.17;39.79;101271.69;1947922;74;20147;-42
2023/02/26 08:25:19;;;;;;;;;;;;;;;15.21;39.96;101276.75;1947972;74;20164;-42
2023/02/26 08:27:46;;;;;;;;;;;;;;;15.28;39.66;101261.40;1951513;73;20100;-40
2023/02/26 08:30:14;;;;;;;;;;;;;;;15.23;39.36;101281.98;1959055;73;20412;-40
2023/02/26 08:32:42;;;;;;;;;;;;;;;15.23;39.72;101285.97;1959112;73;20117;-40
2023/02/26 08:35:10;;;;;;;;;;;;;;;15.24;39.81;101289.02;1959144;73;20116;-39
2023/02/26 08:37:38;;;;;;;;;;;;;;;15.25;39.55;101289.39;1958263;73;20143;-45
2023/02/26 08:40:08;;;;;;;;;;;;;;;15.28;39.80;101287.08;1954317;73;20116;-42
2023/02/26 08:42:35;;;;;;;;;;;;;;;15.30;39.61;101299.31;1957023;72;20117;-43
2023/02/26 08:45:03;;;;;;;;;;;;;;;15.31;39.56;101306.80;1978193;72;20110;-39
2023/02/26 08:47:31;;;;;;;;;;;;;;;15.32;39.43;101301.90;1956768;72;20116;-39
2023/02/26 08:49:59;;;;;;;;;;;;;;;15.30;39.21;101278.09;1954660;73;20143;-39
2023/02/26 08:52:26;;;;;;;;;;;;;;;15.33;39.52;101293.87;1953809;73;20116;-39
2023/02/26 08:54:54;;;;;;;;;;;;;;;15.40;39.37;101301.91;1953738;73;20113;-39
2023/02/26 08:57:22;;;;;;;;;;;;;;;15.45;39.39;101309.62;1955699;72;20112;-39
2023/02/26 08:59:50;;;;;;;;;;;;;;;15.49;39.26;101309.00;1954335;73;20412;-39
2023/02/26 09:02:18;;;;;;;;;;;;;;;15.52;39.12;101303.55;1955058;72;20116;-38
2023/02/26 09:04:46;;;;;;;;;;;;;;;15.57;39.26;101310.34;1955070;73;20113;-39
2023/02/26 09:07:14;;;;;;;;;;;;;;;15.69;39.25;101311.98;1952130;73;20104;-39
2023/02/26 09:09:41;;;;;;;;;;;;;;;15.74;38.68;101318.80;1950814;74;20112;-38
2023/02/26 09:12:09;;;;;;;;;;;;;;;15.71;38.49;101299.00;1950767;74;20237;-38
2023/02/26 09:14:37;;;;;;;;;;;;;;;15.74;38.70;101318.80;1950857;74;20100;-38
2023/02/26 09:17:05;;;;;;;;;;;;;;;15.86;38.62;101316.00;1950909;74;20113;-38
2023/02/26 09:19:33;;;;;;;;;;;;;;;15.97;38.50;101312.75;1950804;74;20113;-38
2023/02/26 09:22:00;;;;;;;;;;;;;;;16.00;38.43;101323.23;1950837;74;20104;-38
2023/02/26 09:24:28;;;;;;;;;;;;;;;16.08;38.49;101317.02;1950755;74;20108;-38
2023/02/26 09:26:57;;;;;;;;;;;;;;;16.18;38.58;101322.25;1950939;74;20101;-38
2023/02/26 09:29:24;;;;;;;;;;;;;;;16.32;38.40;101314.00;1950826;72;20212;-38
2023/02/26 09:31:52;;;;;;;;;;;;;;;16.34;38.15;101324.95;1950877;74;20100;-39
2023/02/26 09:34:20;;;;;;;;;;;;;;;16.37;38.14;101311.48;1950930;74;20151;-39
2023/02/26 09:36:48;;;;;;;;;;;;;;;16.31;38.13;101316.29;1950860;74;20143;-39
2023/02/26 09:39:15;;;;;;;;;;;;;;;16.26;38.29;101323.64;1950749;74;20113;-39
2023/02/26 09:41:44;;;;;;;;;;;;;;;16.19;38.43;101316.02;1950827;74;20150;-39
2023/02/26 09:44:23;;;;;;;;;;;;;;;16.11;38.60;101318.68;1950814;73;20116;-38
2023/02/26 09:46:52;;;;;;;;;;;;;;;16.10;38.81;101315.63;1951049;74;20120;-38
2023/02/26 09:49:21;;;;;;;;;;;;;;;16.02;38.83;101325.33;1950803;73;20113;-39
2023/02/26 09:51:50;;;;;;;;;;;;;;;15.91;38.95;101322.38;1950797;74;20156;-39
2023/02/26 09:54:19;;;;;;;;;;;;;;;15.93;39.29;101321.35;1950894;74;20117;-39
2023/02/26 09:56:47;;;;;;;;;;;;;;;16.00;39.27;101327.21;1950919;74;20096;-38
2023/02/26 09:59:15;;;;;;;;;;;;;;;16.02;39.23;101327.98;1950875;74;20108;-38
2023/02/26 10:01:44;;;;;;;;;;;;;;;15.98;38.96;101328.61;1950739;74;20382;-39
2023/02/26 10:04:19;;;;;;;;;;;;;;;15.97;39.31;101314.08;1950633;73;20116;-38
2023/02/26 10:07:05;;;;;;;;;;;;;;;15.94;39.35;101326.22;1950413;73;20121;-38
2023/02/26 10:09:41;;;;;;;;;;;;;;;15.95;39.42;101310.65;1950943;74;20109;-38
2023/02/26 10:12:19;;;;;;;;;;;;;;;15.94;39.24;101320.91;1949919;73;20113;-38
2023/02/26 10:14:54;;;;;;;;;;;;;;;15.97;39.42;101312.31;1950833;73;20112;-38
2023/02/26 10:17:23;;;;;;;;;;;;;;;16.18;39.37;101319.59;1949603;73;20113;-38
2023/02/26 10:19:53;;;;;;;;;;;;;;;16.23;39.06;101335.75;1951023;74;20142;-39
2023/02/26 10:22:25;;;;;;;;;;;;;;;16.23;39.25;101322.47;1950838;74;20112;-38
2023/02/26 10:24:54;;;;;;;;;;;;;;;16.37;39.22;101313.29;1950436;74;20116;-38
2023/02/26 10:27:32;;;;;;;;;;;;;;;16.56;38.79;101330.41;1947750;73;20117;-38
2023/02/26 10:30:01;;;;;;;;;;;;;;;16.64;38.36;101332.68;1949611;73;20139;-38
2023/02/26 10:32:40;;;;;;;;;;;;;;;16.53;38.53;101311.52;1950809;74;20191;-39
2023/02/26 10:35:15;;;;;;;;;;;;;;;16.52;38.56;101328.87;1950637;74;20378;-38
2023/02/26 10:37:47;;;;;;;;;;;;;;;16.51;38.90;101323.19;1950838;74;20195;-37
2023/02/26 10:40:25;;;;;;;;;;;;;;;16.66;38.72;101317.50;1950999;74;20417;-38
2023/02/26 10:42:57;;;;;;;;;;;;;;;16.73;38.42;101324.19;1950643;74;20146;-38
2023/02/26 10:45:43;;;;;;;;;;;;;;;16.74;38.55;101320.57;1950793;74;20117;-38
2023/02/26 10:48:16;;;;;;;;;;;;;;;16.77;38.70;101324.41;1950878;74;20117;-38
2023/02/26 10:50:55;;;;;;;;;;;;;;;16.70;38.68;101327.02;1950779;74;20105;-38
2023/02/26 10:53:24;;;;;;;;;;;;;;;16.48;38.88;101312.23;1950740;74;20108;-38
2023/02/26 10:55:59;;;;;;;;;;;;;;;16.38;39.16;101295.09;1950762;74;20147;-38
2023/02/26 10:58:28;;;;;;;;;;;;;;;16.22;39.20;101299.03;1949155;73;20214;-38
2023/02/26 11:00:56;;;;;;;;;;;;;;;16.16;39.33;101305.54;1950787;74;20104;-38
2023/02/26 11:03:25;;;;;;;;;;;;;;;16.12;39.44;101302.66;1950714;72;20371;-38
2023/02/26 11:05:53;;;;;;;;;;;;;;;16.17;39.54;101280.67;1950747;74;20120;-38
2023/02/26 11:08:28;;;;;;;;;;;;;;;16.04;39.35;101292.90;1950770;74;20117;-38
2023/02/26 11:10:57;;;;;;;;;;;;;;;15.90;39.85;101281.70;1950669;74;20383;-38
2023/02/26 11:13:27;;;;;;;;;;;;;;;15.90;40.10;101299.41;1950995;74;20351;-38
2023/02/26 11:15:58;;;;;;;;;;;;;;;15.91;40.21;101307.77;1950914;74;20105;-38
2023/02/26 11:18:40;;;;;;;;;;;;;;;15.87;40.39;101300.91;1951012;74;20404;-38
2023/02/26 11:21:09;;;;;;;;;;;;;;;15.86;40.43;101305.82;1950801;74;20547;-38
2023/02/26 11:23:38;;;;;;;;;;;;;;;15.83;40.46;101294.42;1950894;74;20140;-38
2023/02/26 11:26:07;;;;;;;;;;;;;;;15.83;40.50;101301.06;1951022;74;20375;-38
2023/02/26 11:28:37;;;;;;;;;;;;;;;15.90;40.53;101311.35;1951120;74;20367;-38
2023/02/26 11:31:09;;;;;;;;;;;;;;;16.05;40.42;101319.87;1951008;74;20097;-38
2023/02/26 11:33:39;;;;;;;;;;;;;;;16.15;40.21;101304.29;1950839;74;20112;-38
2023/02/26 11:36:14;;;;;;;;;;;;;;;16.30;40.07;101317.22;1949702;73;20143;-38
2023/02/26 11:38:44;;;;;;;;;;;;;;;16.46;39.80;101316.78;1950856;74;20117;-38
2023/02/26 11:41:13;;;;;;;;;;;;;;;16.73;39.36;101315.73;1951023;74;20116;-38
2023/02/26 11:43:42;;;;;;;;;;;;;;;17.00;39.01;101304.98;1950910;74;20122;-38
2023/02/26 11:46:10;;;;;;;;;;;;;;;17.06;38.79;101325.91;1950802;74;20163;-38
2023/02/26 11:48:46;;;;;;;;;;;;;;;17.01;38.83;101330.66;1950903;74;20117;-38
2023/02/26 11:51:15;;;;;;;;;;;;;;;16.99;38.81;101334.73;1950254;73;20100;-38
2023/02/26 11:53:44;;;;;;;;;;;;;;;16.84;39.01;101353.73;1951084;74;20355;-38
2023/02/26 11:56:14;;;;;;;;;;;;;;;16.63;39.03;101343.77;1950510;73;20108;-38
2023/02/26 11:58:43;;;;;;;;;;;;;;;16.44;39.53;101333.28;1950736;74;20109;-38
2023/02/26 12:01:12;;;;;;;;;;;;;;;16.35;39.55;101311.19;1950957;74;20142;-38
2023/02/26 12:03:42;;;;;;;;;;;;;;;16.17;39.84;101335.13;1950974;74;20433;-38
2023/02/26 12:06:11;;;;;;;;;;;;;;;16.07;40.18;101339.23;1921739;75;20420;-39
2023/02/26 12:08:38;;;;;;;;;;;;;;;15.98;40.40;101323.78;1921382;74;20147;-39
2023/02/26 12:11:11;;;;;;;;;;;;;;;15.90;40.83;101353.84;1921585;74;20139;-39
2023/02/26 12:13:50;;;;;;;;;;;;;;;15.87;40.86;101324.33;1921682;75;20110;-39
2023/02/26 12:16:19;;;;;;;;;;;;;;;15.86;41.03;101346.53;1920260;74;20140;-38
2023/02/26 12:19:03;;;;;;;;;;;;;;;15.89;41.02;101344.17;1920978;74;20109;-38
2023/02/26 12:21:33;;;;;;;;;;;;;;;15.80;40.92;101358.30;1921671;75;20152;-38
2023/02/26 12:24:08;;;;;;;;;;;;;;;15.72;41.25;101357.81;1919012;74;20167;-38
2023/02/26 12:26:40;;;;;;;;;;;;;;;15.69;41.31;101359.28;1921117;74;20147;-38
2023/02/26 12:29:16;;;;;;;;;;;;;;;15.70;41.38;101378.27;1920481;74;20117;-38
2023/02/26 12:31:48;;;;;;;;;;;;;;;15.70;41.49;101362.34;1921748;75;20139;-38
2023/02/26 12:34:29;;;;;;;;;;;;;;;15.77;41.46;101301.87;1921116;74;20238;-38
2023/02/26 12:37:03;;;;;;;;;;;;;;;15.78;41.41;101371.28;1921638;74;20390;-38
2023/02/26 12:39:32;;;;;;;;;;;;;;;15.73;41.55;101346.27;1921341;74;20144;-38
2023/02/26 12:42:01;;;;;;;;;;;;;;;15.69;41.57;101347.81;1921085;74;20168;-38
2023/02/26 12:44:46;;;;;;;;;;;;;;;15.69;41.75;101356.63;1921057;74;20147;-38
2023/02/26 12:47:30;;;;;;;;;;;;;;;15.64;41.68;101364.00;1921485;74;20112;-38
2023/02/26 12:50:18;;;;;;;;;;;;;;;15.53;41.80;101379.13;1921403;75;20143;-38